N1397U KMSY-KMSY
Flight info
| Callsign | N1397U |
|---|---|
| Flight time | 0h 16m |
| Altitude | 3000 |
| Route | KMSY DISCOVERY FLIGHT |
| Aircraft | C172/L-V/N |
Departure
| Time | 2026-05-05 01:16 |
|---|---|
| Airport | Louis Armstrong New Orleans International Airport (KMSY) |
Arrival
| Time | 2026-05-05 01:33 |
|---|---|
| Airport | Louis Armstrong New Orleans International Airport (KMSY) |
| Time | Latitude | Longitude | Altitude | Speed | Heading |
|---|---|---|---|---|---|
| 2026-05-05 00:51 | 29.99655 | -90.26419 | 6 ft | 0 kts | 14° |
| 2026-05-05 01:10 | 29.99657 | -90.26419 | 6 ft | 3 kts | 355° |
| 2026-05-05 01:10 | 29.99665 | -90.26466 | 6 ft | 7 kts | 271° |
| 2026-05-05 01:11 | 29.99666 | -90.26500 | 6 ft | 6 kts | 273° |
| 2026-05-05 01:11 | 29.99667 | -90.26540 | 6 ft | 4 kts | 250° |
| 2026-05-05 01:11 | 29.99633 | -90.26556 | 6 ft | 7 kts | 193° |
| 2026-05-05 01:11 | 29.99576 | -90.26574 | 6 ft | 10 kts | 195° |
| 2026-05-05 01:12 | 29.99514 | -90.26553 | 6 ft | 9 kts | 128° |
| 2026-05-05 01:12 | 29.99490 | -90.26489 | 5 ft | 9 kts | 109° |
| 2026-05-05 01:12 | 29.99469 | -90.26424 | 4 ft | 9 kts | 110° |
| 2026-05-05 01:12 | 29.99452 | -90.26358 | 3 ft | 9 kts | 104° |
| 2026-05-05 01:13 | 29.99429 | -90.26263 | 2 ft | 15 kts | 106° |
| 2026-05-05 01:13 | 29.99397 | -90.26130 | 1 ft | 20 kts | 106° |
| 2026-05-05 01:13 | 29.99359 | -90.25962 | -3 ft | 22 kts | 103° |
| 2026-05-05 01:13 | 29.99272 | -90.25855 | -1 ft | 17 kts | 152° |
| 2026-05-05 01:14 | 29.99229 | -90.25741 | -1 ft | 15 kts | 104° |
| 2026-05-05 01:14 | 29.99194 | -90.25641 | -1 ft | 12 kts | 130° |
| 2026-05-05 01:14 | 29.99128 | -90.25638 | 1 ft | 9 kts | 192° |
| 2026-05-05 01:14 | 29.99082 | -90.25653 | 2 ft | 5 kts | 197° |
| 2026-05-05 01:15 | 29.99064 | -90.25673 | 3 ft | 4 kts | 269° |
| 2026-05-05 01:15 | 29.99086 | -90.25782 | 2 ft | 38 kts | 284° |
| 2026-05-05 01:15 | 29.99198 | -90.26258 | 25 ft | 79 kts | 285° |
| 2026-05-05 01:15 | 29.99346 | -90.26920 | 250 ft | 81 kts | 287° |
| 2026-05-05 01:16 | 29.99709 | -90.27415 | 434 ft | 90 kts | 343° |
| 2026-05-05 01:16 | 30.00255 | -90.27188 | 700 ft | 88 kts | 53° |
| 2026-05-05 01:16 | 30.00443 | -90.26541 | 966 ft | 84 kts | 82° |
| 2026-05-05 01:16 | 30.00559 | -90.25874 | 1160 ft | 90 kts | 78° |
| 2026-05-05 01:17 | 30.00523 | -90.25182 | 1438 ft | 84 kts | 103° |
| 2026-05-05 01:17 | 30.00282 | -90.24548 | 1613 ft | 90 kts | 130° |
| 2026-05-05 01:17 | 29.99780 | -90.24163 | 1862 ft | 86 kts | 144° |
| 2026-05-05 01:17 | 29.99289 | -90.23674 | 1982 ft | 99 kts | 139° |
| 2026-05-05 01:18 | 29.98824 | -90.23092 | 2151 ft | 102 kts | 123° |
| 2026-05-05 01:18 | 29.98601 | -90.22310 | 2340 ft | 101 kts | 103° |
| 2026-05-05 01:18 | 29.98486 | -90.21519 | 2522 ft | 102 kts | 97° |
| 2026-05-05 01:18 | 29.98374 | -90.20707 | 2716 ft | 101 kts | 103° |
| 2026-05-05 01:19 | 29.98224 | -90.19864 | 2755 ft | 108 kts | 102° |
| 2026-05-05 01:19 | 29.98070 | -90.19006 | 2743 ft | 111 kts | 103° |
| 2026-05-05 01:19 | 29.97918 | -90.18124 | 2722 ft | 112 kts | 98° |
| 2026-05-05 01:19 | 29.97951 | -90.17233 | 2701 ft | 113 kts | 75° |
| 2026-05-05 01:20 | 29.98381 | -90.16414 | 2450 ft | 127 kts | 43° |
| 2026-05-05 01:20 | 29.99030 | -90.15819 | 2529 ft | 113 kts | 62° |
| 2026-05-05 01:20 | 29.99006 | -90.14988 | 2623 ft | 104 kts | 102° |
| 2026-05-05 01:20 | 29.98876 | -90.14170 | 2712 ft | 103 kts | 102° |
| 2026-05-05 01:21 | 29.98734 | -90.13341 | 2815 ft | 110 kts | 102° |
| 2026-05-05 01:21 | 29.98579 | -90.12444 | 2839 ft | 117 kts | 102° |
| 2026-05-05 01:21 | 29.98420 | -90.11521 | 2841 ft | 117 kts | 102° |
| 2026-05-05 01:21 | 29.98260 | -90.10594 | 2843 ft | 118 kts | 102° |
| 2026-05-05 01:22 | 29.98100 | -90.09665 | 2843 ft | 118 kts | 102° |
| 2026-05-05 01:22 | 29.97939 | -90.08732 | 2843 ft | 119 kts | 102° |
| 2026-05-05 01:22 | 29.97775 | -90.07797 | 2843 ft | 119 kts | 105° |
| 2026-05-05 01:22 | 29.97251 | -90.07110 | 2847 ft | 117 kts | 155° |
| 2026-05-05 01:23 | 29.96517 | -90.06687 | 2846 ft | 120 kts | 154° |
| 2026-05-05 01:23 | 29.95748 | -90.06264 | 2842 ft | 124 kts | 164° |
| 2026-05-05 01:23 | 29.94884 | -90.06236 | 2843 ft | 125 kts | 183° |
| 2026-05-05 01:23 | 29.94020 | -90.06259 | 2840 ft | 122 kts | 183° |
| 2026-05-05 01:24 | 29.93188 | -90.06262 | 2826 ft | 119 kts | 172° |
| 2026-05-05 01:24 | 29.92608 | -90.05665 | 2826 ft | 117 kts | 106° |
| 2026-05-05 01:24 | 29.92615 | -90.04737 | 2832 ft | 116 kts | 86° |
| 2026-05-05 01:24 | 29.93019 | -90.03993 | 2825 ft | 114 kts | 24° |
| 2026-05-05 01:25 | 29.93773 | -90.04069 | 2830 ft | 112 kts | 334° |
| 2026-05-05 01:25 | 29.94473 | -90.04468 | 2837 ft | 113 kts | 333° |
| 2026-05-05 01:25 | 29.95180 | -90.04878 | 2840 ft | 114 kts | 333° |
| 2026-05-05 01:25 | 29.95893 | -90.05292 | 2842 ft | 115 kts | 333° |
| 2026-05-05 01:26 | 29.96554 | -90.05797 | 2828 ft | 116 kts | 303° |
| 2026-05-05 01:26 | 29.96756 | -90.06684 | 2831 ft | 115 kts | 281° |
| 2026-05-05 01:26 | 29.96905 | -90.07575 | 2832 ft | 115 kts | 281° |
| 2026-05-05 01:26 | 29.97052 | -90.08480 | 2832 ft | 115 kts | 281° |
| 2026-05-05 01:27 | 29.97199 | -90.09387 | 2832 ft | 115 kts | 281° |
| 2026-05-05 01:27 | 29.97346 | -90.10292 | 2832 ft | 115 kts | 281° |
| 2026-05-05 01:27 | 29.97480 | -90.11204 | 2826 ft | 115 kts | 271° |
| 2026-05-05 01:27 | 29.97291 | -90.12103 | 2820 ft | 115 kts | 255° |
| 2026-05-05 01:28 | 29.97075 | -90.12992 | 2820 ft | 115 kts | 255° |
| 2026-05-05 01:28 | 29.96877 | -90.13860 | 2508 ft | 112 kts | 259° |
| 2026-05-05 01:28 | 29.96902 | -90.14688 | 2157 ft | 99 kts | 294° |
| 2026-05-05 01:28 | 29.96962 | -90.15489 | 1840 ft | 101 kts | 273° |
| 2026-05-05 01:29 | 29.97014 | -90.16276 | 1587 ft | 100 kts | 275° |
| 2026-05-05 01:29 | 29.97070 | -90.17056 | 1366 ft | 95 kts | 275° |
| 2026-05-05 01:29 | 29.97176 | -90.17786 | 1147 ft | 88 kts | 281° |
| 2026-05-05 01:29 | 29.97302 | -90.18474 | 981 ft | 86 kts | 283° |
| 2026-05-05 01:30 | 29.97438 | -90.19136 | 857 ft | 84 kts | 280° |
| 2026-05-05 01:30 | 29.97587 | -90.19789 | 724 ft | 82 kts | 284° |
| 2026-05-05 01:30 | 29.97759 | -90.20428 | 591 ft | 83 kts | 287° |
| 2026-05-05 01:30 | 29.97925 | -90.21060 | 525 ft | 85 kts | 284° |
| 2026-05-05 01:31 | 29.98068 | -90.21685 | 473 ft | 76 kts | 285° |
| 2026-05-05 01:31 | 29.98201 | -90.22264 | 456 ft | 75 kts | 283° |
| 2026-05-05 01:31 | 29.98352 | -90.22876 | 350 ft | 81 kts | 287° |
| 2026-05-05 01:31 | 29.98514 | -90.23496 | 270 ft | 80 kts | 285° |
| 2026-05-05 01:32 | 29.98665 | -90.24118 | 193 ft | 80 kts | 290° |
| 2026-05-05 01:32 | 29.98826 | -90.24721 | 120 ft | 80 kts | 286° |
| 2026-05-05 01:32 | 29.98979 | -90.25350 | 22 ft | 82 kts | 285° |
| 2026-05-05 01:32 | 29.99107 | -90.25866 | 3 ft | 52 kts | 286° |
| 2026-05-05 01:33 | 29.99190 | -90.26208 | -1 ft | 38 kts | 284° |
| 2026-05-05 01:33 | 29.99257 | -90.26445 | 3 ft | 23 kts | 316° |
| 2026-05-05 01:33 | 29.99382 | -90.26447 | 2 ft | 16 kts | 18° |
| 2026-05-05 01:33 | 29.99475 | -90.26406 | 4 ft | 12 kts | 27° |
| 2026-05-05 01:34 | 29.99571 | -90.26366 | 5 ft | 18 kts | 15° |
| 2026-05-05 01:34 | 29.99651 | -90.26422 | 6 ft | 17 kts | 247° |
| 2026-05-05 01:34 | 29.99661 | -90.26463 | 6 ft | 0 kts | 26° |